createdAt,value
2022-08-12T00:00:57.423Z,19.20
2022-08-12T00:04:01.848Z,19.10
2022-08-12T00:07:06.845Z,19.00
2022-08-12T00:10:11.912Z,19.00
2022-08-12T00:13:17.110Z,19.00
2022-08-12T00:16:22.564Z,18.90
2022-08-12T00:19:26.993Z,18.90
2022-08-12T00:22:32.780Z,18.80
2022-08-12T00:26:01.415Z,18.80
2022-08-12T00:29:02.024Z,18.70
2022-08-12T00:32:06.566Z,18.60
2022-08-12T00:35:17.171Z,18.60
2022-08-12T00:38:23.093Z,18.60
2022-08-12T00:41:30.719Z,18.50
2022-08-12T00:44:19.239Z,18.50
2022-08-12T00:47:24.529Z,18.40
2022-08-12T00:50:18.677Z,18.30
2022-08-12T00:53:07.103Z,18.30
2022-08-12T00:55:58.285Z,18.30
2022-08-12T00:58:48.402Z,18.20
2022-08-12T01:02:10.459Z,18.20
2022-08-12T01:05:06.480Z,18.20
2022-08-12T01:08:12.140Z,18.10
2022-08-12T01:11:17.379Z,18.10
2022-08-12T01:14:04.333Z,18.10
2022-08-12T01:16:52.765Z,18.10
2022-08-12T01:19:40.338Z,18.00
2022-08-12T01:22:54.256Z,18.00
2022-08-12T01:25:56.027Z,17.90
2022-08-12T01:28:44.772Z,17.90
2022-08-12T01:31:31.288Z,17.80
2022-08-12T01:34:35.692Z,17.80
2022-08-12T01:37:25.734Z,17.80
2022-08-12T01:40:36.829Z,17.70
2022-08-12T01:43:22.160Z,17.70
2022-08-12T01:46:31.007Z,17.70
2022-08-12T01:49:21.785Z,17.60
2022-08-12T01:52:22.123Z,17.60
2022-08-12T01:55:11.312Z,17.50
2022-08-12T01:58:11.599Z,17.50
2022-08-12T02:01:06.623Z,17.50
2022-08-12T02:04:34.519Z,17.40
2022-08-12T02:07:48.367Z,17.40
2022-08-12T02:11:18.809Z,17.40
2022-08-12T02:14:42.008Z,17.40
2022-08-12T02:17:57.126Z,17.30
2022-08-12T02:21:00.213Z,17.30
2022-08-12T02:23:47.516Z,17.30
2022-08-12T02:26:39.529Z,17.20
2022-08-12T02:29:26.656Z,17.20
2022-08-12T02:32:14.454Z,17.20
2022-08-12T02:35:01.772Z,17.10
2022-08-12T02:37:52.375Z,17.10
2022-08-12T02:40:43.196Z,17.10
2022-08-12T02:43:51.218Z,17.10
2022-08-12T02:46:39.147Z,17.00
2022-08-12T02:49:40.746Z,17.00
2022-08-12T02:52:27.401Z,16.90
2022-08-12T02:55:28.575Z,16.90
2022-08-12T02:58:21.301Z,16.80
2022-08-12T03:01:25.002Z,16.80
2022-08-12T03:04:20.869Z,16.80
2022-08-12T03:07:20.115Z,16.80
2022-08-12T03:10:11.358Z,16.80
2022-08-12T03:13:04.253Z,16.80
2022-08-12T03:15:50.549Z,16.80
2022-08-12T03:18:37.671Z,16.80
2022-08-12T03:21:53.063Z,16.80
2022-08-12T03:24:34.800Z,16.70
2022-08-12T03:27:22.857Z,16.70
2022-08-12T03:30:09.268Z,16.70
2022-08-12T03:33:00.220Z,16.60
2022-08-12T03:35:47.252Z,16.60
2022-08-12T03:38:43.086Z,16.60
2022-08-12T03:41:35.349Z,16.50
2022-08-12T03:45:05.776Z,16.50
2022-08-12T03:48:36.863Z,16.40
2022-08-12T03:51:41.656Z,16.40
2022-08-12T03:54:46.548Z,16.30
2022-08-12T03:57:51.301Z,16.30
2022-08-12T04:00:37.775Z,16.30
2022-08-12T04:03:43.450Z,16.30
2022-08-12T04:06:34.906Z,16.20
2022-08-12T04:09:22.723Z,16.20
2022-08-12T04:12:35.703Z,16.20
2022-08-12T04:15:25.939Z,16.20
2022-08-12T04:18:13.306Z,16.20
2022-08-12T04:21:01.571Z,16.20
2022-08-12T04:23:48.961Z,16.20
2022-08-12T04:26:39.950Z,16.20
2022-08-12T04:30:31.969Z,16.20
2022-08-12T04:32:37.679Z,16.20
2022-08-12T04:35:28.196Z,16.10
2022-08-12T04:38:14.508Z,16.10
2022-08-12T04:41:01.470Z,16.10
2022-08-12T04:43:59.886Z,16.00
2022-08-12T04:46:48.563Z,16.00
2022-08-12T04:49:35.691Z,15.90
2022-08-12T04:52:22.139Z,15.90
2022-08-12T04:55:12.959Z,16.00
2022-08-12T04:57:59.116Z,16.00
2022-08-12T05:00:47.675Z,16.00
2022-08-12T05:03:46.088Z,16.00
2022-08-12T05:06:33.003Z,16.10
2022-08-12T05:09:19.641Z,16.10
2022-08-12T05:12:08.816Z,16.10
2022-08-12T05:14:55.914Z,16.10
2022-08-12T05:17:43.585Z,16.10
2022-08-12T05:20:30.805Z,16.10
2022-08-12T05:23:21.474Z,16.10
2022-08-12T05:26:07.607Z,16.10
2022-08-12T05:28:54.285Z,16.10
2022-08-12T05:31:48.127Z,16.20
2022-08-12T05:34:34.813Z,16.20
2022-08-12T05:37:23.671Z,16.20
2022-08-12T05:40:11.422Z,16.20
2022-08-12T05:42:58.027Z,16.20
2022-08-12T05:45:45.489Z,16.20
2022-08-12T05:48:32.459Z,16.20
2022-08-12T05:51:18.895Z,16.20
2022-08-12T05:54:05.901Z,16.20
2022-08-12T05:56:52.139Z,16.20
2022-08-12T05:59:43.793Z,16.30
2022-08-12T06:02:30.163Z,16.30
2022-08-12T06:05:16.364Z,16.40
2022-08-12T06:08:07.576Z,16.50
2022-08-12T06:10:53.749Z,16.60
2022-08-12T06:13:54.188Z,16.80
2022-08-12T06:16:40.481Z,16.90
2022-08-12T06:20:28.466Z,17.00
2022-08-12T06:22:38.704Z,17.10
2022-08-12T06:25:27.777Z,17.20
2022-08-12T06:28:17.320Z,17.30
2022-08-12T06:35:26.330Z,17.60
2022-08-12T06:37:18.904Z,17.70
2022-08-12T06:40:06.721Z,17.80
2022-08-12T06:42:52.932Z,18.00
2022-08-12T06:45:46.801Z,18.10
2022-08-12T06:48:33.214Z,18.20
2022-08-12T06:51:20.792Z,18.30
2022-08-12T06:54:07.441Z,18.40
2022-08-12T06:57:04.780Z,18.50
2022-08-12T07:00:01.512Z,18.60
2022-08-12T07:02:47.824Z,18.70
2022-08-12T07:05:36.718Z,18.80
2022-08-12T07:08:23.684Z,18.90
2022-08-12T07:11:13.261Z,19.00
2022-08-12T07:14:12.651Z,19.10
2022-08-12T07:17:02.335Z,19.20
2022-08-12T07:19:54.173Z,19.30
2022-08-12T07:22:41.739Z,19.40
2022-08-12T07:25:40.482Z,19.40
2022-08-12T07:28:35.755Z,19.50
2022-08-12T07:31:21.523Z,19.60
2022-08-12T07:34:07.763Z,19.70
2022-08-12T07:36:53.980Z,19.80
2022-08-12T07:39:58.709Z,19.90
2022-08-12T07:42:46.545Z,20.00
2022-08-12T07:45:32.533Z,20.10
2022-08-12T07:48:18.480Z,20.30
2022-08-12T07:51:05.088Z,20.40
2022-08-12T07:54:00.454Z,20.50
2022-08-12T07:56:50.033Z,20.60
2022-08-12T07:59:36.108Z,20.70
2022-08-12T08:02:22.330Z,20.80
2022-08-12T08:05:13.267Z,20.90
2022-08-12T08:08:02.474Z,21.10
2022-08-12T08:10:50.172Z,21.20
2022-08-12T08:13:38.924Z,21.30
2022-08-12T08:16:25.382Z,21.30
2022-08-12T08:19:24.054Z,21.40
2022-08-12T08:22:10.594Z,21.50
2022-08-12T08:24:58.522Z,21.60
2022-08-12T08:27:47.025Z,21.80
2022-08-12T08:30:34.640Z,21.80
2022-08-12T08:33:23.641Z,22.00
2022-08-12T08:36:27.425Z,22.10
2022-08-12T08:39:17.095Z,22.20
2022-08-12T08:42:21.556Z,22.30
2022-08-12T08:45:13.000Z,22.50
2022-08-12T08:48:00.578Z,22.60
2022-08-12T08:50:46.574Z,22.70
2022-08-12T08:53:52.804Z,22.80
2022-08-12T08:56:50.126Z,22.90
2022-08-12T08:59:36.611Z,23.10
2022-08-12T09:02:22.633Z,23.20
2022-08-12T09:05:16.292Z,23.30
2022-08-12T09:08:14.506Z,23.40
2022-08-12T09:14:30.229Z,23.70
2022-08-12T09:17:21.330Z,23.80
2022-08-12T09:20:09.483Z,23.90
2022-08-12T09:22:57.575Z,24.00
2022-08-12T09:25:48.794Z,24.10
2022-08-12T09:28:37.158Z,24.20
2022-08-12T09:32:08.006Z,24.30
2022-08-12T09:34:33.942Z,24.40
2022-08-12T09:37:28.347Z,24.50
2022-08-12T09:41:02.518Z,24.70
2022-08-12T09:44:05.637Z,24.70
2022-08-12T09:46:52.420Z,24.90
2022-08-12T09:49:42.614Z,25.00
2022-08-12T09:52:32.024Z,25.00
2022-08-12T09:56:05.523Z,25.10
2022-08-12T09:58:56.855Z,25.20
2022-08-12T10:02:45.018Z,25.40
2022-08-12T10:04:51.698Z,25.50
2022-08-12T10:07:40.685Z,25.60
2022-08-12T10:10:30.716Z,25.70
2022-08-12T10:13:41.758Z,25.80
2022-08-12T10:16:38.750Z,25.90
2022-08-12T10:19:36.181Z,26.00
2022-08-12T10:22:39.475Z,26.00
2022-08-12T10:26:33.710Z,26.10
2022-08-12T10:30:01.112Z,26.20
2022-08-12T10:32:45.540Z,26.30
2022-08-12T10:35:37.700Z,26.50
2022-08-12T10:38:37.926Z,26.60
2022-08-12T10:41:57.730Z,26.70
2022-08-12T10:44:46.870Z,26.90
2022-08-12T10:48:07.625Z,27.00
2022-08-12T10:51:01.778Z,27.00
2022-08-12T10:53:48.194Z,27.20
2022-08-12T10:56:40.550Z,27.20
2022-08-12T11:00:31.449Z,27.40
2022-08-12T11:04:27.373Z,27.50
2022-08-12T11:07:07.347Z,27.60
2022-08-12T11:08:48.318Z,27.70
2022-08-12T11:12:34.713Z,27.70
2022-08-12T11:14:49.357Z,27.80
2022-08-12T11:17:52.094Z,27.90
2022-08-12T11:20:39.593Z,28.00
2022-08-12T11:23:36.893Z,28.10
2022-08-12T11:26:24.036Z,28.20
2022-08-12T11:29:22.090Z,28.30
2022-08-12T11:32:08.818Z,28.40
2022-08-12T11:34:55.472Z,28.40
2022-08-12T11:37:57.758Z,28.40
2022-08-12T11:40:45.122Z,28.50
2022-08-12T11:43:32.483Z,28.50
2022-08-12T11:46:38.213Z,28.60
2022-08-12T11:49:31.345Z,28.70
2022-08-12T11:52:55.552Z,28.90
2022-08-12T11:55:27.472Z,29.10
2022-08-12T11:59:08.438Z,29.20
2022-08-12T12:02:03.412Z,29.40
2022-08-12T12:04:29.453Z,29.40
2022-08-12T12:07:15.986Z,29.60
2022-08-12T12:10:02.123Z,29.60
2022-08-12T12:12:49.927Z,29.70
2022-08-12T12:15:40.987Z,29.80
2022-08-12T12:18:30.768Z,29.90
2022-08-12T12:21:17.373Z,30.00
2022-08-12T12:24:03.564Z,30.00
2022-08-12T12:27:00.133Z,30.10
2022-08-12T12:30:19.850Z,30.20
2022-08-12T12:32:54.038Z,30.10
2022-08-12T12:36:18.135Z,30.20
2022-08-12T12:38:46.764Z,30.20
2022-08-12T12:42:42.022Z,30.30
2022-08-12T12:44:42.105Z,30.30
2022-08-12T12:47:37.315Z,30.30
2022-08-12T12:50:35.446Z,30.40
2022-08-12T12:54:06.812Z,30.40
2022-08-12T12:56:34.103Z,30.50
2022-08-12T12:59:56.512Z,30.60
2022-08-12T13:02:31.760Z,30.70
2022-08-12T13:05:42.750Z,30.80
2022-08-12T13:08:35.756Z,30.80
2022-08-12T13:11:22.922Z,30.90
2022-08-12T13:14:28.108Z,31.00
2022-08-12T13:17:17.497Z,31.10
2022-08-12T13:20:06.745Z,31.20
2022-08-12T13:22:54.042Z,31.20
2022-08-12T13:25:43.210Z,31.30
2022-08-12T13:28:31.167Z,31.40
2022-08-12T13:31:17.410Z,31.50
2022-08-12T13:34:33.905Z,31.50
2022-08-12T13:37:11.754Z,31.60
2022-08-12T13:39:58.061Z,31.70
2022-08-12T13:42:48.745Z,31.80
2022-08-12T13:45:37.394Z,32.00
2022-08-12T13:48:23.710Z,32.00
2022-08-12T13:51:24.179Z,32.10
2022-08-12T13:54:11.767Z,32.20
2022-08-12T13:57:00.177Z,32.30
2022-08-12T13:59:55.039Z,32.30
2022-08-12T14:02:42.503Z,32.40
2022-08-12T14:05:38.405Z,32.50
2022-08-12T14:08:25.469Z,32.50
2022-08-12T14:11:13.143Z,32.60
2022-08-12T14:14:04.682Z,32.70
2022-08-12T14:16:52.423Z,32.70
2022-08-12T14:20:00.657Z,32.80
2022-08-12T14:22:51.527Z,32.90
2022-08-12T14:25:42.351Z,33.00
2022-08-12T14:28:34.922Z,33.10
2022-08-12T14:31:25.661Z,33.20
2022-08-12T14:34:15.632Z,33.30
2022-08-12T14:37:02.400Z,33.40
2022-08-12T14:39:53.594Z,33.50
2022-08-12T14:42:40.225Z,33.60
2022-08-12T14:45:45.373Z,33.70
2022-08-12T14:48:33.573Z,33.80
2022-08-12T14:52:54.615Z,33.90
2022-08-12T14:57:57.001Z,34.20
2022-08-12T15:01:03.237Z,34.40
2022-08-12T15:03:58.202Z,34.60
2022-08-12T15:06:52.645Z,34.80
2022-08-12T15:09:38.994Z,35.00
2022-08-12T15:12:24.964Z,35.20
2022-08-12T15:15:11.417Z,35.50
2022-08-12T15:18:02.122Z,35.90
2022-08-12T15:20:49.510Z,36.30
2022-08-12T15:23:45.775Z,36.90
2022-08-12T15:26:42.714Z,37.60
2022-08-12T15:29:30.059Z,38.30
2022-08-12T15:32:17.975Z,39.00
2022-08-12T15:35:19.420Z,39.70
2022-08-12T15:38:09.574Z,40.30
2022-08-12T15:41:00.814Z,40.80
2022-08-12T15:44:15.955Z,41.30
2022-08-12T15:46:54.979Z,41.70
2022-08-12T15:49:54.130Z,42.10
2022-08-12T15:52:46.561Z,42.60
2022-08-12T15:55:36.116Z,43.10
2022-08-12T15:58:33.834Z,43.50
2022-08-12T16:01:20.973Z,43.90
2022-08-12T16:04:06.846Z,44.20
2022-08-12T16:07:05.568Z,44.50
2022-08-12T16:10:05.930Z,44.70
2022-08-12T16:12:57.987Z,44.90
2022-08-12T16:15:51.121Z,45.10
2022-08-12T16:18:49.835Z,45.30
2022-08-12T16:21:51.818Z,45.20
2022-08-12T16:24:45.948Z,45.40
2022-08-12T16:27:38.658Z,45.40
2022-08-12T16:30:32.740Z,45.60
2022-08-12T16:33:19.765Z,45.70
2022-08-12T16:36:11.393Z,45.70
2022-08-12T16:39:01.363Z,45.60
2022-08-12T16:41:48.303Z,45.60
2022-08-12T16:44:35.677Z,45.60
2022-08-12T16:47:23.289Z,45.60
2022-08-12T16:50:14.473Z,45.60
2022-08-12T16:53:02.358Z,45.70
2022-08-12T16:55:52.039Z,45.80
2022-08-12T16:58:39.427Z,45.70
2022-08-12T17:01:27.468Z,45.70
2022-08-12T17:04:15.485Z,45.70
2022-08-12T17:07:02.973Z,45.70
2022-08-12T17:09:52.222Z,45.70
2022-08-12T17:12:40.052Z,45.70
2022-08-12T17:15:51.320Z,45.70
2022-08-12T17:18:44.008Z,45.70
2022-08-12T17:22:01.122Z,45.60
2022-08-12T17:24:50.610Z,45.60
2022-08-12T17:27:56.959Z,45.50
2022-08-12T17:30:57.220Z,45.20
2022-08-12T17:33:50.469Z,45.10
2022-08-12T17:36:43.249Z,45.00
2022-08-12T17:40:13.766Z,44.90
2022-08-12T17:42:37.928Z,44.90
2022-08-12T17:45:27.314Z,44.70
2022-08-12T17:48:17.574Z,44.40
2022-08-12T17:51:16.035Z,44.10
2022-08-12T17:54:10.543Z,43.80
2022-08-12T17:57:00.197Z,43.20
2022-08-12T17:59:51.149Z,42.00
2022-08-12T18:02:39.181Z,40.60
2022-08-12T18:05:43.464Z,38.80
2022-08-12T18:08:35.986Z,37.20
2022-08-12T18:12:04.341Z,35.70
2022-08-12T18:14:53.798Z,34.40
2022-08-12T18:17:46.917Z,33.30
2022-08-12T18:20:36.634Z,32.40
2022-08-12T18:23:26.413Z,31.70
2022-08-12T18:26:26.876Z,31.10
2022-08-12T18:29:17.146Z,30.60
2022-08-12T18:32:34.784Z,30.00
2022-08-12T18:35:11.288Z,29.60
2022-08-12T18:38:02.709Z,29.20
2022-08-12T18:41:10.046Z,28.80
2022-08-12T18:44:10.436Z,28.50
2022-08-12T18:47:01.460Z,28.20
2022-08-12T18:49:49.752Z,27.90
2022-08-12T18:52:40.414Z,27.70
2022-08-12T18:55:37.703Z,27.40
2022-08-12T18:58:30.325Z,27.30
2022-08-12T19:02:19.586Z,27.10
2022-08-12T19:04:26.399Z,26.90
2022-08-12T19:07:23.752Z,26.70
2022-08-12T19:10:11.494Z,26.60
2022-08-12T19:13:23.143Z,26.40
2022-08-12T19:16:12.339Z,26.30
2022-08-12T19:18:58.885Z,26.10
2022-08-12T19:21:53.462Z,26.00
2022-08-12T19:25:01.530Z,25.90
2022-08-12T19:27:50.626Z,25.70
2022-08-12T19:30:55.907Z,25.50
2022-08-12T19:34:06.332Z,25.40
2022-08-12T19:36:50.932Z,25.30
2022-08-12T19:40:09.950Z,25.10
2022-08-12T19:43:00.759Z,25.00
2022-08-12T19:45:56.597Z,24.90
2022-08-12T19:48:44.859Z,24.80
2022-08-12T19:51:49.465Z,24.60
2022-08-12T19:54:36.033Z,24.50
2022-08-12T19:57:22.517Z,24.40
2022-08-12T20:00:17.355Z,24.30
2022-08-12T20:03:08.329Z,24.20
2022-08-12T20:06:21.738Z,24.10
2022-08-12T20:09:11.758Z,24.00
2022-08-12T20:12:14.315Z,23.90
2022-08-12T20:15:09.467Z,23.80
2022-08-12T20:17:57.303Z,23.70
2022-08-12T20:20:47.683Z,23.60
2022-08-12T20:23:59.780Z,23.60
2022-08-12T20:26:44.570Z,23.50
2022-08-12T20:29:36.550Z,23.40
2022-08-12T20:32:29.498Z,23.40
2022-08-12T20:35:38.942Z,23.30
2022-08-12T20:38:34.188Z,23.20
2022-08-12T20:41:22.183Z,23.10
2022-08-12T20:44:16.841Z,23.10
2022-08-12T20:47:17.931Z,23.00
2022-08-12T20:50:09.213Z,22.90
2022-08-12T20:52:55.585Z,22.90
2022-08-12T20:55:47.054Z,22.80
2022-08-12T20:58:44.229Z,22.70
2022-08-12T21:01:46.198Z,22.70
2022-08-12T21:04:51.515Z,22.60
2022-08-12T21:07:40.876Z,22.50
2022-08-12T21:10:38.614Z,22.40
2022-08-12T21:13:26.617Z,22.40
2022-08-12T21:16:13.877Z,22.30
2022-08-12T21:19:00.827Z,22.30
2022-08-12T21:21:49.929Z,22.20
2022-08-12T21:24:36.655Z,22.20
2022-08-12T21:27:58.600Z,22.10
2022-08-12T21:31:11.526Z,22.10
2022-08-12T21:34:08.690Z,22.00
2022-08-12T21:36:56.681Z,22.00
2022-08-12T21:39:50.658Z,21.90
2022-08-12T21:42:40.053Z,21.90
2022-08-12T21:45:45.410Z,21.80
2022-08-12T21:48:34.163Z,21.80
2022-08-12T21:51:23.496Z,21.80
2022-08-12T21:54:12.143Z,21.70
2022-08-12T21:57:08.984Z,21.70
2022-08-12T21:59:55.373Z,21.70
2022-08-12T22:02:59.607Z,21.70
2022-08-12T22:06:03.965Z,21.60
2022-08-12T22:08:57.724Z,21.60
2022-08-12T22:11:49.110Z,21.50
2022-08-12T22:14:43.125Z,21.50
2022-08-12T22:17:50.081Z,21.50
2022-08-12T22:20:37.111Z,21.50
2022-08-12T22:23:28.370Z,21.40
2022-08-12T22:26:37.561Z,21.40
2022-08-12T22:29:42.582Z,21.30
2022-08-12T22:32:30.079Z,21.30
2022-08-12T22:35:55.438Z,21.30
2022-08-12T22:38:40.716Z,21.30
2022-08-12T22:41:46.204Z,21.20
2022-08-12T22:44:54.885Z,21.20
2022-08-12T22:47:54.719Z,21.20
2022-08-12T22:50:42.185Z,21.10
2022-08-12T22:53:35.822Z,21.10
2022-08-12T22:56:30.832Z,21.10
2022-08-12T22:59:17.447Z,21.10
2022-08-12T23:02:08.428Z,21.00
2022-08-12T23:04:58.526Z,21.00
2022-08-12T23:07:58.657Z,20.90
2022-08-12T23:10:46.383Z,20.90
2022-08-12T23:13:55.463Z,20.90
2022-08-12T23:16:42.582Z,20.90
2022-08-12T23:19:38.054Z,20.80
2022-08-12T23:22:36.870Z,20.80
2022-08-12T23:25:32.663Z,20.80
2022-08-12T23:28:54.944Z,20.80
2022-08-12T23:32:03.416Z,20.70
2022-08-12T23:34:50.563Z,20.70
2022-08-12T23:37:47.783Z,20.60
2022-08-12T23:40:40.307Z,20.60
2022-08-12T23:43:26.780Z,20.60
2022-08-12T23:46:27.217Z,20.60
2022-08-12T23:49:27.158Z,20.50
2022-08-12T23:52:19.541Z,20.50
2022-08-12T23:55:23.732Z,20.50
2022-08-12T23:58:21.311Z,20.40
